sensor_id;sensor_type;location;lat;lon;timestamp;pressure;altitude;pressure_sealevel;temperature;humidity
5952;BME280;3001;42.622;23.194;2023-02-13T00:02:22;92828.34;;;1.31;86.61
5952;BME280;3001;42.622;23.194;2023-02-13T00:04:49;92817.53;;;1.29;85.95
5952;BME280;3001;42.622;23.194;2023-02-13T00:07:16;92810.06;;;1.21;86.46
5952;BME280;3001;42.622;23.194;2023-02-13T00:09:42;92820.66;;;1.31;87.01
5952;BME280;3001;42.622;23.194;2023-02-13T00:12:11;92824.97;;;1.30;87.04
5952;BME280;3001;42.622;23.194;2023-02-13T00:14:38;92822.53;;;1.42;85.82
5952;BME280;3001;42.622;23.194;2023-02-13T00:17:06;92820.69;;;1.24;86.32
5952;BME280;3001;42.622;23.194;2023-02-13T00:19:32;92824.28;;;1.17;86.00
5952;BME280;3001;42.622;23.194;2023-02-13T00:21:59;92819.16;;;1.17;86.37
5952;BME280;3001;42.622;23.194;2023-02-13T00:24:26;92821.50;;;1.25;83.29
5952;BME280;3001;42.622;23.194;2023-02-13T00:26:52;92817.63;;;1.40;83.26
5952;BME280;3001;42.622;23.194;2023-02-13T00:29:20;92832.13;;;1.22;83.65
5952;BME280;3001;42.622;23.194;2023-02-13T00:31:47;92827.25;;;1.14;84.68
5952;BME280;3001;42.622;23.194;2023-02-13T00:34:14;92821.19;;;1.08;83.42
5952;BME280;3001;42.622;23.194;2023-02-13T00:36:40;92823.59;;;1.03;82.41
5952;BME280;3001;42.622;23.194;2023-02-13T00:39:07;92837.44;;;0.89;82.88
5952;BME280;3001;42.622;23.194;2023-02-13T00:41:36;92829.00;;;0.82;83.38
5952;BME280;3001;42.622;23.194;2023-02-13T00:44:03;92828.44;;;0.80;82.89
5952;BME280;3001;42.622;23.194;2023-02-13T00:46:31;92822.94;;;0.77;80.52
5952;BME280;3001;42.622;23.194;2023-02-13T00:48:57;92833.81;;;0.66;81.80
5952;BME280;3001;42.622;23.194;2023-02-13T00:51:24;92827.03;;;0.47;82.84
5952;BME280;3001;42.622;23.194;2023-02-13T00:53:51;92834.09;;;0.51;83.09
5952;BME280;3001;42.622;23.194;2023-02-13T00:56:17;92836.44;;;0.53;82.56
5952;BME280;3001;42.622;23.194;2023-02-13T00:58:44;92836.03;;;0.49;80.89
5952;BME280;3001;42.622;23.194;2023-02-13T01:01:11;92838.66;;;0.36;82.15
5952;BME280;3001;42.622;23.194;2023-02-13T01:03:39;92843.03;;;0.23;82.00
5952;BME280;3001;42.622;23.194;2023-02-13T01:06:06;92847.34;;;0.16;83.04
5952;BME280;3001;42.622;23.194;2023-02-13T01:08:33;92844.22;;;0.14;83.96
5952;BME280;3001;42.622;23.194;2023-02-13T01:11:00;92848.34;;;0.08;84.02
5952;BME280;3001;42.622;23.194;2023-02-13T01:13:27;92845.44;;;0.05;83.42
5952;BME280;3001;42.622;23.194;2023-02-13T01:15:54;92844.06;;;-0.10;83.70
5952;BME280;3001;42.622;23.194;2023-02-13T01:18:20;92838.94;;;0.02;81.59
5952;BME280;3001;42.622;23.194;2023-02-13T01:20:57;92836.59;;;-0.05;82.60
5952;BME280;3001;42.622;23.194;2023-02-13T01:23:24;92838.56;;;-0.07;83.41
5952;BME280;3001;42.622;23.194;2023-02-13T01:25:51;92845.44;;;-0.08;84.03
5952;BME280;3001;42.622;23.194;2023-02-13T01:28:18;92848.97;;;-0.09;83.28
5952;BME280;3001;42.622;23.194;2023-02-13T01:30:45;92853.31;;;-0.09;83.46
5952;BME280;3001;42.622;23.194;2023-02-13T01:33:17;92848.22;;;-0.09;84.38
5952;BME280;3001;42.622;23.194;2023-02-13T01:35:44;92844.06;;;-0.04;84.34
5952;BME280;3001;42.622;23.194;2023-02-13T01:38:12;92852.28;;;0.04;84.00
5952;BME280;3001;42.622;23.194;2023-02-13T01:40:44;92845.44;;;0.05;84.72
5952;BME280;3001;42.622;23.194;2023-02-13T01:43:11;92842.88;;;-0.08;85.08
5952;BME280;3001;42.622;23.194;2023-02-13T01:45:38;92854.84;;;0.17;85.00
5952;BME280;3001;42.622;23.194;2023-02-13T01:48:07;92856.41;;;0.05;85.01
5952;BME280;3001;42.622;23.194;2023-02-13T01:50:39;92848.97;;;-0.03;85.58
5952;BME280;3001;42.622;23.194;2023-02-13T01:53:10;92849.56;;;-0.01;85.86
5952;BME280;3001;42.622;23.194;2023-02-13T01:55:44;92852.69;;;0.08;85.27
5952;BME280;3001;42.622;23.194;2023-02-13T01:58:16;92845.19;;;0.13;86.12
5952;BME280;3001;42.622;23.194;2023-02-13T02:00:45;92853.84;;;0.05;86.04
5952;BME280;3001;42.622;23.194;2023-02-13T02:03:18;92852.09;;;0.06;85.82
5952;BME280;3001;42.622;23.194;2023-02-13T02:05:48;92865.25;;;0.16;85.54
5952;BME280;3001;42.622;23.194;2023-02-13T02:08:17;92858.38;;;0.16;84.88
5952;BME280;3001;42.622;23.194;2023-02-13T02:10:46;92856.56;;;0.23;85.13
5952;BME280;3001;42.622;23.194;2023-02-13T02:13:15;92864.25;;;0.23;86.25
5952;BME280;3001;42.622;23.194;2023-02-13T02:15:43;92856.22;;;0.13;86.24
5952;BME280;3001;42.622;23.194;2023-02-13T02:18:13;92857.56;;;0.16;85.93
5952;BME280;3001;42.622;23.194;2023-02-13T02:20:56;92855.41;;;0.19;85.51
5952;BME280;3001;42.622;23.194;2023-02-13T02:30:06;92857.16;;;0.19;85.21
5952;BME280;3001;42.622;23.194;2023-02-13T02:35:32;92862.06;;;0.33;86.40
5952;BME280;3001;42.622;23.194;2023-02-13T02:38:22;92854.75;;;0.37;86.61
5952;BME280;3001;42.622;23.194;2023-02-13T02:40:58;92855.72;;;0.42;86.66
5952;BME280;3001;42.622;23.194;2023-02-13T02:43:41;92859.66;;;0.45;85.98
5952;BME280;3001;42.622;23.194;2023-02-13T02:46:13;92867.69;;;0.55;85.83
5952;BME280;3001;42.622;23.194;2023-02-13T02:48:49;92871.78;;;0.62;85.48
5952;BME280;3001;42.622;23.194;2023-02-13T02:51:41;92871.97;;;0.61;86.08
5952;BME280;3001;42.622;23.194;2023-02-13T02:54:15;92875.72;;;0.65;85.79
5952;BME280;3001;42.622;23.194;2023-02-13T02:57:06;92883.72;;;0.75;84.98
5952;BME280;3001;42.622;23.194;2023-02-13T02:59:35;92888.84;;;0.75;85.71
5952;BME280;3001;42.622;23.194;2023-02-13T03:02:21;92887.31;;;0.67;86.03
5952;BME280;3001;42.622;23.194;2023-02-13T03:05:16;92886.69;;;0.78;85.60
5952;BME280;3001;42.622;23.194;2023-02-13T03:08:03;92883.13;;;0.86;84.52
5952;BME280;3001;42.622;23.194;2023-02-13T03:10:32;92882.47;;;0.90;84.40
5952;BME280;3001;42.622;23.194;2023-02-13T03:13:30;92885.41;;;1.00;84.04
5952;BME280;3001;42.622;23.194;2023-02-13T03:16:00;92885.19;;;1.02;84.18
5952;BME280;3001;42.622;23.194;2023-02-13T03:18:48;92885.41;;;1.00;83.75
5952;BME280;3001;42.622;23.194;2023-02-13T03:21:44;92882.59;;;1.08;84.77
5952;BME280;3001;42.622;23.194;2023-02-13T03:24:38;92886.59;;;0.91;85.74
5952;BME280;3001;42.622;23.194;2023-02-13T03:27:12;92884.47;;;0.88;85.81
5952;BME280;3001;42.622;23.194;2023-02-13T03:30:10;92872.06;;;0.92;85.64
5952;BME280;3001;42.622;23.194;2023-02-13T03:32:42;92880.66;;;1.04;84.80
5952;BME280;3001;42.622;23.194;2023-02-13T03:35:20;92882.25;;;0.98;85.24
5952;BME280;3001;42.622;23.194;2023-02-13T03:38:13;92879.13;;;0.96;85.12
5952;BME280;3001;42.622;23.194;2023-02-13T03:40:47;92887.38;;;0.98;85.07
5952;BME280;3001;42.622;23.194;2023-02-13T03:43:37;92897.38;;;1.06;84.68
5952;BME280;3001;42.622;23.194;2023-02-13T03:46:06;92890.69;;;1.05;84.67
5952;BME280;3001;42.622;23.194;2023-02-13T03:48:35;92892.25;;;1.06;85.42
5952;BME280;3001;42.622;23.194;2023-02-13T03:51:27;92890.03;;;1.16;85.70
5952;BME280;3001;42.622;23.194;2023-02-13T03:53:59;92881.34;;;1.24;86.41
5952;BME280;3001;42.622;23.194;2023-02-13T03:56:27;92877.28;;;1.10;86.75
5952;BME280;3001;42.622;23.194;2023-02-13T03:59:19;92886.25;;;0.88;87.49
5952;BME280;3001;42.622;23.194;2023-02-13T04:01:53;92877.38;;;0.90;88.48
5952;BME280;3001;42.622;23.194;2023-02-13T04:04:30;92875.19;;;0.94;88.87
5952;BME280;3001;42.622;23.194;2023-02-13T04:07:01;92877.91;;;0.99;87.25
5952;BME280;3001;42.622;23.194;2023-02-13T04:09:33;92874.34;;;1.06;87.12
5952;BME280;3001;42.622;23.194;2023-02-13T04:12:07;92886.28;;;1.19;86.24
5952;BME280;3001;42.622;23.194;2023-02-13T04:14:39;92889.41;;;1.21;85.29
5952;BME280;3001;42.622;23.194;2023-02-13T04:17:13;92895.72;;;1.25;83.97
5952;BME280;3001;42.622;23.194;2023-02-13T04:19:42;92894.19;;;1.17;85.48
5952;BME280;3001;42.622;23.194;2023-02-13T04:22:11;92903.44;;;1.12;86.31
5952;BME280;3001;42.622;23.194;2023-02-13T04:24:39;92900.59;;;1.26;86.07
5952;BME280;3001;42.622;23.194;2023-02-13T04:27:06;92903.19;;;1.20;86.49
5952;BME280;3001;42.622;23.194;2023-02-13T04:29:33;92904.16;;;1.25;86.28
5952;BME280;3001;42.622;23.194;2023-02-13T04:32:00;92900.53;;;1.39;85.49
5952;BME280;3001;42.622;23.194;2023-02-13T04:34:26;92899.41;;;1.60;84.76
5952;BME280;3001;42.622;23.194;2023-02-13T04:36:53;92903.25;;;1.44;85.18
5952;BME280;3001;42.622;23.194;2023-02-13T04:39:20;92896.53;;;1.50;83.95
5952;BME280;3001;42.622;23.194;2023-02-13T04:41:48;92900.66;;;1.51;83.59
5952;BME280;3001;42.622;23.194;2023-02-13T04:44:15;92893.75;;;1.51;82.97
5952;BME280;3001;42.622;23.194;2023-02-13T04:46:41;92901.44;;;1.51;81.51
5952;BME280;3001;42.622;23.194;2023-02-13T04:49:09;92902.66;;;1.49;80.50
5952;BME280;3001;42.622;23.194;2023-02-13T04:51:36;92891.50;;;1.37;81.22
5952;BME280;3001;42.622;23.194;2023-02-13T04:54:03;92895.06;;;1.29;82.72
5952;BME280;3001;42.622;23.194;2023-02-13T04:56:29;92896.31;;;1.20;83.81
5952;BME280;3001;42.622;23.194;2023-02-13T04:58:57;92896.28;;;1.27;83.48
5952;BME280;3001;42.622;23.194;2023-02-13T05:01:24;92898.63;;;1.28;83.55
5952;BME280;3001;42.622;23.194;2023-02-13T05:03:50;92905.69;;;1.33;83.26
5952;BME280;3001;42.622;23.194;2023-02-13T05:06:17;92908.84;;;1.35;82.86
5952;BME280;3001;42.622;23.194;2023-02-13T05:08:44;92920.47;;;1.31;81.75
5952;BME280;3001;42.622;23.194;2023-02-13T05:11:10;92916.41;;;1.17;80.90
5952;BME280;3001;42.622;23.194;2023-02-13T05:13:37;92923.78;;;1.00;80.69
5952;BME280;3001;42.622;23.194;2023-02-13T05:16:05;92918.13;;;0.79;81.67
5952;BME280;3001;42.622;23.194;2023-02-13T05:18:32;92919.38;;;0.63;83.42
5952;BME280;3001;42.622;23.194;2023-02-13T05:20:59;92923.50;;;0.64;85.05
5952;BME280;3001;42.622;23.194;2023-02-13T05:23:43;92915.06;;;0.64;85.76
5952;BME280;3001;42.622;23.194;2023-02-13T05:26:09;92920.56;;;0.61;86.37
5952;BME280;3001;42.622;23.194;2023-02-13T05:28:36;92918.00;;;0.61;86.54
5952;BME280;3001;42.622;23.194;2023-02-13T05:31:21;92924.09;;;0.66;86.21
5952;BME280;3001;42.622;23.194;2023-02-13T05:33:48;92922.50;;;0.78;84.64
5952;BME280;3001;42.622;23.194;2023-02-13T05:36:15;92924.44;;;0.83;84.21
5952;BME280;3001;42.622;23.194;2023-02-13T05:38:41;92922.41;;;0.91;84.12
5952;BME280;3001;42.622;23.194;2023-02-13T05:41:08;92926.53;;;0.99;83.33
5952;BME280;3001;42.622;23.194;2023-02-13T05:43:37;92924.75;;;0.99;83.38
5952;BME280;3001;42.622;23.194;2023-02-13T05:46:05;92924.38;;;0.96;84.04
5952;BME280;3001;42.622;23.194;2023-02-13T05:48:35;92923.59;;;0.95;84.65
5952;BME280;3001;42.622;23.194;2023-02-13T05:51:02;92928.91;;;1.00;82.06
5952;BME280;3001;42.622;23.194;2023-02-13T05:53:28;92935.16;;;1.04;81.51
5952;BME280;3001;42.622;23.194;2023-02-13T05:55:55;92931.09;;;0.90;80.40
5952;BME280;3001;42.622;23.194;2023-02-13T05:58:22;92931.50;;;0.81;80.76
5952;BME280;3001;42.622;23.194;2023-02-13T06:00:49;92929.94;;;0.80;81.53
5952;BME280;3001;42.622;23.194;2023-02-13T06:03:15;92940.53;;;0.90;80.85
5952;BME280;3001;42.622;23.194;2023-02-13T06:05:43;92944.84;;;0.96;81.39
5952;BME280;3001;42.622;23.194;2023-02-13T06:08:10;92948.22;;;0.83;81.83
5952;BME280;3001;42.622;23.194;2023-02-13T06:10:37;92947.56;;;1.01;82.04
5952;BME280;3001;42.622;23.194;2023-02-13T06:13:04;92951.16;;;0.93;82.99
5952;BME280;3001;42.622;23.194;2023-02-13T06:15:31;92947.78;;;1.06;82.94
5952;BME280;3001;42.622;23.194;2023-02-13T06:17:57;92953.81;;;1.11;82.88
5952;BME280;3001;42.622;23.194;2023-02-13T06:20:25;92949.09;;;1.15;82.52
5952;BME280;3001;42.622;23.194;2023-02-13T06:22:53;92950.25;;;1.19;83.17
5952;BME280;3001;42.622;23.194;2023-02-13T06:25:21;92942.81;;;1.11;84.30
5952;BME280;3001;42.622;23.194;2023-02-13T06:27:48;92948.31;;;1.14;84.22
5952;BME280;3001;42.622;23.194;2023-02-13T06:30:16;92948.91;;;1.16;85.47
5952;BME280;3001;42.622;23.194;2023-02-13T06:32:45;92948.09;;;1.22;85.17
5952;BME280;3001;42.622;23.194;2023-02-13T06:35:12;92950.22;;;1.25;85.75
5952;BME280;3001;42.622;23.194;2023-02-13T06:37:40;92951.19;;;1.31;85.01
5952;BME280;3001;42.622;23.194;2023-02-13T06:40:10;92962.41;;;1.36;85.18
5952;BME280;3001;42.622;23.194;2023-02-13T06:42:37;92962.44;;;1.61;83.99
5952;BME280;3001;42.622;23.194;2023-02-13T06:45:05;92963.41;;;1.66;83.33
5952;BME280;3001;42.622;23.194;2023-02-13T06:47:32;92960.22;;;1.70;83.63
5952;BME280;3001;42.622;23.194;2023-02-13T06:49:58;92950.75;;;1.71;83.78
5952;BME280;3001;42.622;23.194;2023-02-13T06:52:25;92965.94;;;1.72;83.38
5952;BME280;3001;42.622;23.194;2023-02-13T06:54:52;92959.06;;;1.67;83.37
5952;BME280;3001;42.622;23.194;2023-02-13T06:57:20;92963.19;;;1.67;83.38
5952;BME280;3001;42.622;23.194;2023-02-13T06:59:47;92958.63;;;1.76;83.89
5952;BME280;3001;42.622;23.194;2023-02-13T07:02:13;92953.53;;;1.94;83.33
5952;BME280;3001;42.622;23.194;2023-02-13T07:04:40;92956.50;;;1.97;83.26
5952;BME280;3001;42.622;23.194;2023-02-13T07:07:06;92953.25;;;2.08;83.58
5952;BME280;3001;42.622;23.194;2023-02-13T07:09:33;92952.66;;;2.31;83.04
5952;BME280;3001;42.622;23.194;2023-02-13T07:12:01;92952.03;;;2.35;83.50
5952;BME280;3001;42.622;23.194;2023-02-13T07:14:29;92955.13;;;2.19;84.40
5952;BME280;3001;42.622;23.194;2023-02-13T07:16:56;92953.19;;;2.39;84.60
5952;BME280;3001;42.622;23.194;2023-02-13T07:19:23;92948.81;;;2.46;85.95
5952;BME280;3001;42.622;23.194;2023-02-13T07:21:50;92945.94;;;2.54;85.31
5952;BME280;3001;42.622;23.194;2023-02-13T07:24:16;92952.53;;;2.68;85.44
5952;BME280;3001;42.622;23.194;2023-02-13T07:26:43;92951.03;;;2.79;84.98
5952;BME280;3001;42.622;23.194;2023-02-13T07:29:10;92957.03;;;2.91;85.94
5952;BME280;3001;42.622;23.194;2023-02-13T07:31:38;92962.66;;;2.99;84.91
5952;BME280;3001;42.622;23.194;2023-02-13T07:34:05;92960.09;;;2.99;84.29
5952;BME280;3001;42.622;23.194;2023-02-13T07:36:32;92966.72;;;3.07;83.76
5952;BME280;3001;42.622;23.194;2023-02-13T07:38:58;92957.94;;;3.14;84.21
5952;BME280;3001;42.622;23.194;2023-02-13T07:41:25;92967.00;;;3.64;82.16
5952;BME280;3001;42.622;23.194;2023-02-13T07:43:52;92958.75;;;3.73;82.06
5952;BME280;3001;42.622;23.194;2023-02-13T07:46:18;92965.38;;;3.81;80.40
5952;BME280;3001;42.622;23.194;2023-02-13T07:48:46;92965.66;;;3.91;80.03
5952;BME280;3001;42.622;23.194;2023-02-13T07:51:13;92969.22;;;3.90;79.67
5952;BME280;3001;42.622;23.194;2023-02-13T07:53:40;92964.19;;;3.83;81.23
5952;BME280;3001;42.622;23.194;2023-02-13T07:56:08;92961.06;;;3.93;80.49
5952;BME280;3001;42.622;23.194;2023-02-13T07:58:35;92963.19;;;3.96;80.23
5952;BME280;3001;42.622;23.194;2023-02-13T08:01:05;92956.53;;;4.06;80.88
5952;BME280;3001;42.622;23.194;2023-02-13T08:03:32;92959.94;;;3.89;80.34
5952;BME280;3001;42.622;23.194;2023-02-13T08:06:00;92967.06;;;3.87;80.63
5952;BME280;3001;42.622;23.194;2023-02-13T08:08:27;92961.63;;;3.95;80.87
5952;BME280;3001;42.622;23.194;2023-02-13T08:10:54;92966.88;;;3.88;79.78
5952;BME280;3001;42.622;23.194;2023-02-13T08:13:39;92969.44;;;3.88;79.55
5952;BME280;3001;42.622;23.194;2023-02-13T08:16:06;92963.41;;;3.94;78.71
5952;BME280;3001;42.622;23.194;2023-02-13T08:18:32;92971.91;;;3.95;79.46
5952;BME280;3001;42.622;23.194;2023-02-13T08:21:02;92967.66;;;3.89;78.56
5952;BME280;3001;42.622;23.194;2023-02-13T08:23:29;92970.53;;;3.81;77.68
5952;BME280;3001;42.622;23.194;2023-02-13T08:25:58;92967.84;;;3.76;78.21
5952;BME280;3001;42.622;23.194;2023-02-13T08:28:26;92957.03;;;3.85;77.96
5952;BME280;3001;42.622;23.194;2023-02-13T08:30:52;92965.41;;;3.92;78.60
5952;BME280;3001;42.622;23.194;2023-02-13T08:33:19;92965.44;;;4.04;77.56
5952;BME280;3001;42.622;23.194;2023-02-13T08:35:46;92963.66;;;4.04;77.71
5952;BME280;3001;42.622;23.194;2023-02-13T08:38:14;92962.00;;;4.10;78.05
5952;BME280;3001;42.622;23.194;2023-02-13T08:40:41;92969.03;;;4.14;77.13
5952;BME280;3001;42.622;23.194;2023-02-13T08:43:07;92956.53;;;4.18;77.46
5952;BME280;3001;42.622;23.194;2023-02-13T08:45:34;92960.13;;;4.17;75.68
5952;BME280;3001;42.622;23.194;2023-02-13T08:48:01;92965.84;;;4.30;74.66
5952;BME280;3001;42.622;23.194;2023-02-13T08:50:29;92970.22;;;4.30;74.93
5952;BME280;3001;42.622;23.194;2023-02-13T08:52:57;92962.50;;;4.30;74.90
5952;BME280;3001;42.622;23.194;2023-02-13T08:55:25;92961.69;;;4.29;75.39
5952;BME280;3001;42.622;23.194;2023-02-13T08:57:52;92976.50;;;4.45;75.54
5952;BME280;3001;42.622;23.194;2023-02-13T09:00:19;92974.38;;;4.54;75.01
5952;BME280;3001;42.622;23.194;2023-02-13T09:02:46;92974.81;;;4.51;75.35
5952;BME280;3001;42.622;23.194;2023-02-13T09:05:13;92975.69;;;4.45;75.20
5952;BME280;3001;42.622;23.194;2023-02-13T09:07:39;92976.94;;;4.54;72.47
5952;BME280;3001;42.622;23.194;2023-02-13T09:10:08;92974.47;;;4.59;73.91
5952;BME280;3001;42.622;23.194;2023-02-13T09:12:36;92969.44;;;4.52;75.34
5952;BME280;3001;42.622;23.194;2023-02-13T09:15:03;92970.22;;;4.41;74.55
5952;BME280;3001;42.622;23.194;2023-02-13T09:17:30;92977.16;;;4.52;73.43
5952;BME280;3001;42.622;23.194;2023-02-13T09:19:57;92978.97;;;4.63;73.97
5952;BME280;3001;42.622;23.194;2023-02-13T09:22:23;92971.56;;;4.78;73.06
5952;BME280;3001;42.622;23.194;2023-02-13T09:24:50;92969.41;;;5.09;73.38
5952;BME280;3001;42.622;23.194;2023-02-13T09:27:17;92964.97;;;5.44;71.59
5952;BME280;3001;42.622;23.194;2023-02-13T09:29:45;92966.00;;;5.71;70.18
5952;BME280;3001;42.622;23.194;2023-02-13T09:32:11;92969.97;;;5.90;70.02
5952;BME280;3001;42.622;23.194;2023-02-13T09:34:38;92976.16;;;5.89;67.57
5952;BME280;3001;42.622;23.194;2023-02-13T09:37:05;92965.44;;;6.09;68.60
5952;BME280;3001;42.622;23.194;2023-02-13T09:39:31;92961.91;;;6.15;69.17
5952;BME280;3001;42.622;23.194;2023-02-13T09:41:59;92951.91;;;6.18;67.24
5952;BME280;3001;42.622;23.194;2023-02-13T09:44:29;92955.50;;;6.50;68.38
5952;BME280;3001;42.622;23.194;2023-02-13T09:47:05;92951.75;;;6.74;68.15
5952;BME280;3001;42.622;23.194;2023-02-13T09:49:37;92947.47;;;7.01;65.81
5952;BME280;3001;42.622;23.194;2023-02-13T09:52:07;92941.06;;;7.25;64.87
5952;BME280;3001;42.622;23.194;2023-02-13T09:54:35;92955.56;;;7.47;64.27
5952;BME280;3001;42.622;23.194;2023-02-13T09:57:07;92954.03;;;7.73;63.62
5952;BME280;3001;42.622;23.194;2023-02-13T09:59:48;92949.88;;;7.93;60.70
5952;BME280;3001;42.622;23.194;2023-02-13T10:02:37;92953.75;;;7.96;62.10
5952;BME280;3001;42.622;23.194;2023-02-13T10:05:15;92939.22;;;8.16;60.95
5952;BME280;3001;42.622;23.194;2023-02-13T10:07:50;92943.78;;;8.31;59.44
5952;BME280;3001;42.622;23.194;2023-02-13T10:10:28;92938.44;;;8.42;59.38
5952;BME280;3001;42.622;23.194;2023-02-13T10:13:13;92934.41;;;8.56;59.09
5952;BME280;3001;42.622;23.194;2023-02-13T10:15:53;92935.25;;;8.66;59.02
5952;BME280;3001;42.622;23.194;2023-02-13T10:18:27;92923.94;;;8.77;58.07
5952;BME280;3001;42.622;23.194;2023-02-13T10:20:59;92923.47;;;8.85;56.60
5952;BME280;3001;42.622;23.194;2023-02-13T10:23:29;92924.63;;;9.04;57.58
5952;BME280;3001;42.622;23.194;2023-02-13T10:26:00;92922.34;;;9.13;58.13
5952;BME280;3001;42.622;23.194;2023-02-13T10:28:33;92919.06;;;9.37;57.37
5952;BME280;3001;42.622;23.194;2023-02-13T10:31:05;92923.09;;;9.70;56.83
5952;BME280;3001;42.622;23.194;2023-02-13T10:33:39;92914.59;;;9.84;55.16
5952;BME280;3001;42.622;23.194;2023-02-13T10:36:16;92916.94;;;9.91;54.64
5952;BME280;3001;42.622;23.194;2023-02-13T10:38:51;92912.50;;;9.96;54.56
5952;BME280;3001;42.622;23.194;2023-02-13T10:41:24;92910.78;;;10.22;53.36
5952;BME280;3001;42.622;23.194;2023-02-13T10:44:03;92909.50;;;10.24;52.92
5952;BME280;3001;42.622;23.194;2023-02-13T10:46:40;92905.59;;;10.36;54.24
5952;BME280;3001;42.622;23.194;2023-02-13T10:49:26;92902.50;;;10.54;53.94
5952;BME280;3001;42.622;23.194;2023-02-13T10:52:05;92892.84;;;10.40;52.93
5952;BME280;3001;42.622;23.194;2023-02-13T10:54:49;92897.28;;;10.54;54.28
5952;BME280;3001;42.622;23.194;2023-02-13T10:57:22;92889.75;;;10.68;53.41
5952;BME280;3001;42.622;23.194;2023-02-13T11:00:06;92889.19;;;10.76;52.52
5952;BME280;3001;42.622;23.194;2023-02-13T11:02:35;92891.53;;;10.82;51.87
5952;BME280;3001;42.622;23.194;2023-02-13T11:05:13;92891.03;;;10.80;51.63
5952;BME280;3001;42.622;23.194;2023-02-13T11:07:41;92892.31;;;10.88;51.56
5952;BME280;3001;42.622;23.194;2023-02-13T11:10:15;92885.28;;;10.98;52.00
5952;BME280;3001;42.622;23.194;2023-02-13T11:12:42;92881.13;;;10.97;51.29
5952;BME280;3001;42.622;23.194;2023-02-13T11:15:20;92875.38;;;11.05;51.50
5952;BME280;3001;42.622;23.194;2023-02-13T11:17:48;92888.06;;;11.17;50.97
5952;BME280;3001;42.622;23.194;2023-02-13T11:20:36;92873.78;;;11.19;51.55
5952;BME280;3001;42.622;23.194;2023-02-13T11:26:04;92870.66;;;11.12;49.57
5952;BME280;3001;42.622;23.194;2023-02-13T11:28:36;92864.13;;;11.20;49.82
5952;BME280;3001;42.622;23.194;2023-02-13T11:31:20;92859.22;;;11.08;50.21
5952;BME280;3001;42.622;23.194;2023-02-13T11:33:48;92852.38;;;11.32;49.68
5952;BME280;3001;42.622;23.194;2023-02-13T11:36:24;92856.78;;;11.37;47.02
5952;BME280;3001;42.622;23.194;2023-02-13T11:38:57;92853.97;;;11.28;49.31
5952;BME280;3001;42.622;23.194;2023-02-13T11:41:24;92851.34;;;11.38;48.16
5952;BME280;3001;42.622;23.194;2023-02-13T11:43:53;92841.56;;;11.05;48.98
5952;BME280;3001;42.622;23.194;2023-02-13T11:46:27;92840.22;;;11.18;49.24
5952;BME280;3001;42.622;23.194;2023-02-13T11:49:00;92834.91;;;11.43;49.59
5952;BME280;3001;42.622;23.194;2023-02-13T11:51:36;92833.84;;;11.49;49.70
5952;BME280;3001;42.622;23.194;2023-02-13T11:54:04;92827.81;;;11.63;48.81
5952;BME280;3001;42.622;23.194;2023-02-13T11:56:47;92829.84;;;11.71;46.48
5952;BME280;3001;42.622;23.194;2023-02-13T11:59:15;92822.91;;;11.57;46.20
5952;BME280;3001;42.622;23.194;2023-02-13T12:01:41;92818.53;;;11.42;47.24
5952;BME280;3001;42.622;23.194;2023-02-13T12:04:14;92805.66;;;11.07;46.81
5952;BME280;3001;42.622;23.194;2023-02-13T12:06:58;92797.19;;;10.77;49.12
5952;BME280;3001;42.622;23.194;2023-02-13T12:09:26;92795.34;;;10.87;49.25
5952;BME280;3001;42.622;23.194;2023-02-13T12:11:54;92802.59;;;10.90;49.35
5952;BME280;3001;42.622;23.194;2023-02-13T12:14:24;92800.00;;;10.95;48.52
5952;BME280;3001;42.622;23.194;2023-02-13T12:16:55;92794.44;;;11.17;49.12
5952;BME280;3001;42.622;23.194;2023-02-13T12:19:25;92785.16;;;11.49;48.54
5952;BME280;3001;42.622;23.194;2023-02-13T12:25:24;92787.28;;;11.47;47.94
5952;BME280;3001;42.622;23.194;2023-02-13T12:28:11;92793.44;;;11.66;47.93
5952;BME280;3001;42.622;23.194;2023-02-13T12:31:06;92786.34;;;11.77;47.11
5952;BME280;3001;42.622;23.194;2023-02-13T12:33:52;92794.81;;;11.97;45.56
5952;BME280;3001;42.622;23.194;2023-02-13T12:36:25;92789.25;;;12.08;45.15
5952;BME280;3001;42.622;23.194;2023-02-13T12:39:08;92785.28;;;12.11;44.28
5952;BME280;3001;42.622;23.194;2023-02-13T12:41:47;92784.13;;;11.94;43.93
5952;BME280;3001;42.622;23.194;2023-02-13T12:44:45;92780.56;;;11.85;45.83
5952;BME280;3001;42.622;23.194;2023-02-13T12:47:17;92770.25;;;12.03;46.30
5952;BME280;3001;42.622;23.194;2023-02-13T12:50:17;92765.66;;;12.23;46.82
5952;BME280;3001;42.622;23.194;2023-02-13T12:52:54;92767.50;;;12.51;44.91
5952;BME280;3001;42.622;23.194;2023-02-13T12:55:41;92763.94;;;12.66;44.88
5952;BME280;3001;42.622;23.194;2023-02-13T12:58:24;92762.28;;;12.75;44.36
5952;BME280;3001;42.622;23.194;2023-02-13T13:01:00;92751.66;;;12.95;45.14
5952;BME280;3001;42.622;23.194;2023-02-13T13:03:40;92759.94;;;13.02;45.31
5952;BME280;3001;42.622;23.194;2023-02-13T13:06:20;92759.59;;;13.08;43.88
5952;BME280;3001;42.622;23.194;2023-02-13T13:09:11;92755.97;;;13.04;41.78
5952;BME280;3001;42.622;23.194;2023-02-13T13:12:03;92748.91;;;12.81;42.78
5952;BME280;3001;42.622;23.194;2023-02-13T13:14:36;92746.44;;;12.71;43.39
5952;BME280;3001;42.622;23.194;2023-02-13T13:17:12;92744.91;;;12.65;44.54
5952;BME280;3001;42.622;23.194;2023-02-13T13:19:50;92746.44;;;12.71;43.16
5952;BME280;3001;42.622;23.194;2023-02-13T13:22:24;92740.44;;;12.47;41.68
5952;BME280;3001;42.622;23.194;2023-02-13T13:25:02;92736.53;;;12.45;41.47
5952;BME280;3001;42.622;23.194;2023-02-13T13:27:32;92739.28;;;12.30;42.68
5952;BME280;3001;42.622;23.194;2023-02-13T13:30:05;92730.78;;;12.19;43.63
5952;BME280;3001;42.622;23.194;2023-02-13T13:32:39;92724.44;;;12.02;43.63
5952;BME280;3001;42.622;23.194;2023-02-13T13:35:12;92723.09;;;12.04;46.08
5952;BME280;3001;42.622;23.194;2023-02-13T13:37:42;92721.84;;;12.02;45.79
5952;BME280;3001;42.622;23.194;2023-02-13T13:40:25;92721.69;;;12.17;46.10
5952;BME280;3001;42.622;23.194;2023-02-13T13:42:59;92725.53;;;12.24;45.90
5952;BME280;3001;42.622;23.194;2023-02-13T13:45:36;92726.81;;;12.27;45.55
5952;BME280;3001;42.622;23.194;2023-02-13T13:51:17;92726.50;;;12.33;44.64
5952;BME280;3001;42.622;23.194;2023-02-13T13:54:20;92719.81;;;12.22;45.92
5952;BME280;3001;42.622;23.194;2023-02-13T13:57:08;92719.22;;;12.30;46.80
5952;BME280;3001;42.622;23.194;2023-02-13T13:59:57;92729.47;;;12.22;46.50
5952;BME280;3001;42.622;23.194;2023-02-13T14:02:41;92712.91;;;12.08;46.12
5952;BME280;3001;42.622;23.194;2023-02-13T14:05:27;92719.53;;;11.96;46.34